Terminal Aerodrome Forecast
Issued by NWS Northern Indiana

Home | Current Version | Previous Version | Graphics & Text | Print | Product List | Glossary On
Versions: 1 2 3 4 5 6 7 8 9 10 11 12
000
FTUS43 KIWX 252339
TAFFWA
TAF
KFWA 252339Z 2600/2624 14006KT P6SM VCSH BKN080
     FM260800 24008KT 6SM -SHRA SCT015 OVC040
      TEMPO 2610/2613 3SM SHRA BR OVC015
     FM261400 27012KT P6SM VCSH OVC035
     FM261700 27014G22KT P6SM BKN150=

USA.gov is the U.S. government's official web portal to all federal, state and local government web resources and services.